• Join FlightAware (Why Join?)
  • Login
  • US Flag 
03:18AM EST


 

Airport Tracker/Info


-or-


 

Live Flight TrackerFlight Track Log ✈ FFT532 ✈ 16-Jul-2013 ✈ KDEN - KMDW

Flight Track Log - Related Links

Times and Time Zones

All times are in EDT time to prevent confusion due to time zone crossing. See the FFT532 flight status page for this flight to view local times or setup timezone preferences in your user account.

Time Position Orientation Groundspeed Altitude Reporting Facility
EDT Latitude Longitude Course Direction KTS MPH feet Rate Location/Type
08:45AM 39.8530 -104.6760 90° East 15 17  Level FlightAware
08:47AM 39.8540 -104.6640 84° East 16 18 840 Level FlightAware
08:48AM 39.8590 -104.6630 North 24 28 1,140 Level FlightAware
08:48AM 39.8620 -104.6630 360° North 27 31 1,380 Level FlightAware
08:49AM 39.8650 -104.6630 360° North 31 36 1,500 Level FlightAware
08:49AM 39.8690 -104.6630 360° North 35 40 1,680 Level FlightAware
08:50AM 39.8750 -104.6630 360° North 31 36 1,860 Level FlightAware
08:50AM 39.8750 -104.6620 90° East 28 32 2,520 Level FlightAware
08:51AM 39.8770 -104.6620 360° North 31 36 3,120 Level FlightAware
08:51AM 39.8780 -104.6610 38° Northeast 19 22 4,140 Level FlightAware
08:52AM 39.8780 -104.6450 90° East 84 97 4,980 Level FlightAware
08:52AM 39.8780 -104.6000 90° East 189 217 6,000 5,880 Climbing FlightAware
08:53AM 39.8770 -104.5510 92° East 211 243 7,100 1,500 Climbing FlightAware
08:53AM 39.8760 -104.5290 93° East 228 262 7,500 1,620 Climbing FlightAware
08:54AM 39.8760 -104.4930 90° East 253 291 8,200 1,800 Climbing FlightAware
08:54AM 39.8750 -104.4490 92° East 278 320 9,100 1,800 Climbing FlightAware
08:55AM 39.8740 -104.3780 91° East 308 354 10,300 1,800 Climbing FlightAware
08:55AM 39.8740 -104.3090 90° East 334 384 11,400 2,280 Climbing FlightAware
08:56AM 39.8740 -104.2180 90° East 339 390 13,400 2,220 Climbing FlightAware
08:57AM 39.8730 -104.1340 91° East 355 409 14,600 2,040 Climbing FlightAware
08:58AM 39.8730 -104.0420 90° East 360 414 16,200 2,280 Climbing FlightAware
08:58AM 39.8720 -103.9440 91° East 358 412 18,000 1,920 Climbing FlightAware
08:59AM 39.8750 -103.8650 87° East 370 426 18,900 1,680 Climbing FlightAware
09:00AM 39.8810 -103.7680 85° East 375 432 20,300 1,800 Climbing FlightAware
09:00AM 39.8900 -103.6820 82° East 381 438 21,400 1,740 Climbing FlightAware
09:01AM 39.9000 -103.5910 82° East 382 440 22,600 1,620 Climbing FlightAware
09:02AM 39.9110 -103.4990 81° East 389 448 23,600 1,200 Climbing FlightAware
09:02AM 39.9220 -103.3960 82° East 403 464 24,300 1,140 Climbing FlightAware
09:03AM 39.9340 -103.2880 82° East 409 471 25,300 1,320 Climbing FlightAware
09:04AM 39.9450 -103.1920 81° East 414 476 26,200 1,320 Climbing FlightAware
09:04AM 39.9560 -103.0920 82° East 420 483 27,100 1,320 Climbing FlightAware
09:05AM 39.9680 -102.9810 82° East 424 488 28,100 1,260 Climbing FlightAware
09:06AM 39.9800 -102.8780 81° East 428 493 28,900 1,140 Climbing FlightAware
09:07AM 39.9920 -102.7630 82° East 433 498 29,800 1,140 Climbing FlightAware
09:07AM 40.0030 -102.6620 82° East 437 503 30,500 1,080 Climbing FlightAware
09:08AM 40.0140 -102.5540 82° East 439 505 31,300 1,320 Climbing FlightAware
09:09AM 40.0300 -102.4040 82° East 432 497 32,700 780 Climbing FlightAware
09:10AM 40.0480 -102.2370 82° East 433 498 33,100 180 Climbing FlightAware
09:11AM 40.0590 -102.1270 83° East 433 498 33,100 1,980 Level FlightAware
09:12AM 40.0730 -101.9780 83° East 408 470 36,700 2,340 Climbing FlightAware
09:13AM 40.0820 -101.8930 82° East 405 466 36,900 120 Climbing FlightAware
09:13AM 40.0930 -101.7940 82° East 405 466 36,900  Level FlightAware
09:14AM 40.1010 -101.7180 82° East 405 466 36,900  Level FlightAware
09:15AM 40.1120 -101.6190 82° East 405 466 36,900  Level FlightAware
09:15AM 40.1200 -101.5440 82° East 405 466 36,900  Level FlightAware
09:16AM 40.1280 -101.4700 82° East 405 466 36,900  Level FlightAware
09:17AM 40.1380 -101.3710 82° East 405 466 36,900  Level FlightAware
09:17AM 40.1460 -101.2950 82° East 405 466 36,900  Level FlightAware
09:18AM 40.1540 -101.2210 82° East 405 466 36,900  Level FlightAware
09:19AM 40.1650 -101.1220 82° East 405 466 36,900  Level FlightAware
09:19AM 40.1730 -101.0470 82° East 405 466 36,900  Level FlightAware
09:20AM 40.1840 -100.9480 82° East 405 466 36,900  Level FlightAware
09:21AM 40.1920 -100.8740 82° East 405 466 36,900  Level FlightAware
09:22AM 40.2020 -100.7750 82° East 405 466 36,900 60 Level FlightAware
09:22AM 40.2064 -100.3839 82° East 426 490 37,000  Climbing Denver Center
09:23AM 40.2094 -100.2361 88° East 427 491 37,000  Level Denver Center
09:24AM 40.2119 -100.0414 89° East 421 484 37,000  Level Denver Center
09:25AM 40.2133 -99.8906 89° East 420 483 37,000  Level Denver Center
09:26AM 40.2156 -99.7375 89° East 423 487 37,000  Level Denver Center
09:27AM 40.2167 -99.5828 89° East 425 489 37,100  Climbing Denver Center
09:28AM 40.2186 -99.4275 89° East 428 493 37,000  Descending Denver Center
09:30AM 40.2225 -99.2736 88° East 426 490 37,100  Climbing Denver Center
09:31AM 40.2442 -99.1203 79° East 427 491 37,100  Level Denver Center
09:36AM 40.3670 -98.2060 79° East 425 489 37,100  Level FlightAware
09:37AM 40.3820 -98.0980 80° East 425 489 37,100  Level FlightAware
09:38AM 40.3920 -98.0210 80° East 425 489 37,100 -120 Level FlightAware
09:39AM 40.4140 -97.8480 80° East 423 487 37,000 -60 Descending FlightAware
09:39AM 40.4270 -97.7400 81° East 423 487 37,000  Level FlightAware
09:40AM 40.4420 -97.6230 80° East 424 488 37,000  Level FlightAware
09:41AM 40.4610 -97.4770 80° East 425 489 37,000  Level FlightAware
09:42AM 40.4720 -97.3990 79° East 425 489 37,000  Level FlightAware
09:43AM 40.4820 -97.3190 81° East 425 489 37,000  Level FlightAware
09:43AM 40.4930 -97.2390 80° East 425 489 37,000  Level FlightAware
09:44AM 40.5070 -97.1350 80° East 425 489 37,000  Level FlightAware
09:45AM 40.5170 -97.0570 80° East 425 489 37,000  Level FlightAware
09:46AM 40.5350 -96.9270 80° East 425 489 37,000  Level FlightAware
09:46AM 40.5460 -96.8470 80° East 425 489 37,000  Level FlightAware
09:47AM 40.5630 -96.7170 80° East 425 489 37,000  Level FlightAware
09:48AM 40.5770 -96.6130 80° East 425 489 37,000  Level FlightAware
09:49AM 40.5910 -96.5090 80° East 425 489 37,000  Level FlightAware
09:49AM 40.6020 -96.4290 80° East 425 489 37,000  Level FlightAware
09:50AM 40.6110 -96.3550 81° East 425 489 37,000  Level FlightAware
09:51AM 40.6389 -95.9350 81° East 420 483 37,000  Level Minneapolis Center
09:57AM 40.7380 -95.0190 81° East 423 487 37,000  Level FlightAware
09:58AM 40.7520 -94.8830 82° East 423 487 37,000  Level FlightAware
09:59AM 40.7640 -94.7600 83° East 423 487 37,000  Level FlightAware
10:00AM 40.7760 -94.6360 83° East 422 486 37,000  Level FlightAware
10:00AM 40.7850 -94.5460 82° East 422 486 37,000  Level FlightAware
10:01AM 40.7970 -94.4400 81° East 422 486 37,000  Level FlightAware
10:02AM 40.8080 -94.3090 84° East 420 483 37,000  Level FlightAware
10:03AM 40.8200 -94.1810 83° East 419 482 37,000  Level FlightAware
10:03AM 40.8290 -94.0770 83° East 418 481 37,000  Level FlightAware
10:04AM 40.8410 -93.9530 83° East 417 480 37,000  Level FlightAware
10:05AM 40.8500 -93.8530 83° East 417 480 37,000  Level FlightAware
10:06AM 40.8610 -93.7370 83° East 417 480 37,000  Level FlightAware
10:06AM 40.8700 -93.6360 83° East 419 482 37,000  Level FlightAware
10:07AM 40.8820 -93.4960 83° East 422 486 37,000 60 Level FlightAware
10:08AM 40.8920 -93.3880 83° East 423 487 37,100 60 Climbing FlightAware
10:09AM 40.9020 -93.2740 83° East 424 488 37,100  Level FlightAware
10:10AM 40.9140 -93.1320 84° East 424 488 37,100  Level FlightAware
10:10AM 40.9230 -93.0240 84° East 423 487 37,100  Level FlightAware
10:11AM 40.9340 -92.9000 83° East 424 488 37,100 -60 Level FlightAware
10:12AM 40.9450 -92.7570 84° East 420 483 37,000 -540 Descending FlightAware
10:13AM 40.9540 -92.6440 84° East 414 476 36,300 -1,020 Descending FlightAware
10:13AM 40.9620 -92.5480 84° East 412 474 35,700 -960 Descending FlightAware
10:17AM 40.9990 -92.0730 84° East 401 461 32,500 -1,020 Descending FlightAware
10:17AM 41.0070 -91.9620 85° East 401 461 31,700 -540 Descending FlightAware
10:18AM 41.0180 -91.8310 84° East 401 461 31,700 -960 Level FlightAware
10:19AM 41.0240 -91.7340 85° East 392 451 30,200 -1,800 Descending FlightAware
10:20AM 41.0320 -91.6180 85° East 390 449 29,400 -1,080 Descending FlightAware
10:20AM 41.0400 -91.5170 84° East 389 448 28,600 -720 Descending FlightAware
10:22AM 41.0510 -91.3620 85° East 409 471 28,100 -960 Descending FlightAware
10:22AM 41.0590 -91.2390 85° East 441 507 26,900 -1,440 Descending FlightAware
10:23AM 41.0660 -91.1300 85° East 435 501 26,200 -1,080 Descending FlightAware
10:24AM 41.0750 -91.0040 85° East 434 499 25,400 -1,020 Descending FlightAware
10:24AM 41.0820 -90.8920 85° East 431 496 24,700 -960 Descending FlightAware
10:25AM 41.0890 -90.7870 85° East 425 489 24,100 -840 Descending FlightAware
10:26AM 41.0950 -90.6890 85° East 426 490 23,600 -1,140 Descending FlightAware
10:26AM 41.1020 -90.5840 85° East 422 486 22,600 -1,440 Descending FlightAware
10:27AM 41.1090 -90.4700 85° East 420 483 21,700 -1,200 Descending FlightAware
10:28AM 41.1150 -90.3690 85° East 411 473 21,000 -1,020 Descending FlightAware
10:28AM 41.1210 -90.2740 85° East 407 468 20,400 -1,140 Descending FlightAware
10:29AM 41.1270 -90.1610 86° East 405 466 19,500 -1,440 Descending FlightAware
10:29AM 41.1290 -90.1340 84° East 403 464 19,100 -1,440 Descending FlightAware
10:30AM 41.1320 -90.0730 86° East 399 459 18,300 -1,740 Descending FlightAware
10:31AM 41.1410 -89.9190 86° East 392 451 16,200 -1,980 Descending FlightAware
10:32AM 41.1500 -89.7730 85° East 383 441 14,700 -1,020 Descending FlightAware
10:33AM 41.1550 -89.6800 86° East 382 440 14,700  Level FlightAware
10:33AM 41.1590 -89.6000 86° East 381 438 14,700 -1,020 Level FlightAware
10:34AM 41.1660 -89.4880 85° East 372 428 13,400 -1,200 Descending FlightAware
10:35AM 41.1720 -89.4110 84° East 365 420 13,100 -660 Descending FlightAware
10:35AM 41.1860 -89.3250 78° East 367 422 12,600 -960 Descending FlightAware
10:36AM 41.2290 -89.2050 64° Northeast 365 420 11,600 -1,020 Descending FlightAware
10:37AM 41.2600 -89.1190 64° Northeast 360 414 10,900 -1,020 Descending FlightAware
10:38AM 41.2940 -89.0350 62° Northeast 359 413 10,200 -840 Descending FlightAware
10:38AM 41.3120 -88.9920 61° Northeast 337 388 10,000 -540 Descending FlightAware
10:38AM 41.3280 -88.9510 63° Northeast 316 364 9,800 -600 Descending FlightAware
10:39AM 41.3480 -88.8940 65° Northeast 302 348 9,500 -540 Descending FlightAware
10:39AM 41.3630 -88.8510 65° Northeast 299 344 9,300 -480 Descending FlightAware
10:40AM 41.3770 -88.8100 66° East 300 345 9,100 -540 Descending FlightAware
10:40AM 41.3900 -88.7730 65° Northeast 297 342 8,900 -480 Descending FlightAware
10:41AM 41.4060 -88.7280 65° Northeast 297 342 8,700 -960 Descending FlightAware
10:41AM 41.4200 -88.6870 66° East 296 341 8,100 -1,440 Descending FlightAware
10:42AM 41.4370 -88.6360 66° East 294 338 7,400 -1,440 Descending FlightAware
10:42AM 41.4480 -88.5870 73° East 289 333 6,700 -1,500 Descending FlightAware
10:42AM 41.4560 -88.5390 77° East 285 328 6,000 -1,320 Descending FlightAware
10:43AM 41.4610 -88.5070 78° East 283 326 5,700 -540 Descending FlightAware
10:43AM 41.4690 -88.4620 77° East 287 330 5,600 -120 Descending FlightAware
10:44AM 41.4770 -88.4110 78° East 285 328 5,600 60 Level FlightAware
10:44AM 41.4850 -88.3650 77° East 284 327 5,700  Climbing FlightAware
10:45AM 41.4930 -88.3220 76° East 284 327 5,600 -180 Descending FlightAware
10:45AM 41.5000 -88.2800 77° East 283 326 5,600  Level FlightAware
10:45AM 41.5020 -88.2670 78° East 283 326 5,600  Level FlightAware
10:46AM 41.5120 -88.2100 77° East 283 326 5,600  Level FlightAware
10:46AM 41.5210 -88.1610 76° East 284 327 5,600  Level FlightAware
10:47AM 41.5270 -88.1210 79° East 283 326 5,600  Level FlightAware
10:47AM 41.5320 -88.0960 75° East 283 326 5,600  Level FlightAware
10:47AM 41.5420 -88.0370 77° East 281 323 5,600 -540 Level FlightAware
10:48AM 41.5490 -87.9970 77° East 280 322 5,100 -1,140 Descending FlightAware
10:48AM 41.5580 -87.9470 76° East 276 318 4,600 -540 Descending FlightAware
10:49AM 41.5660 -87.8980 78° East 269 310 4,600 -660 Level FlightAware
10:49AM 41.5690 -87.8520 85° East 264 304 4,000 -1,200 Descending FlightAware
10:49AM 41.5690 -87.8350 90° East 265 305 3,800 -720 Descending FlightAware
10:50AM 41.5710 -87.7970 86° East 269 310 3,600 -300 Descending FlightAware
10:50AM 41.5740 -87.7540 85° East 258 297 3,600  Level FlightAware
10:51AM 41.5770 -87.7040 85° East 257 296 3,600 -240 Level FlightAware
10:51AM 41.5910 -87.6730 59° Northeast 255 293 3,400 -960 Descending FlightAware
10:52AM 41.6140 -87.6400 47° Northeast 254 292 2,800 -1,140 Descending FlightAware
10:52AM 41.6220 -87.6280 48° Northeast 249 287 2,700 -840 Descending FlightAware
10:52AM 41.6450 -87.6010 41° Northeast 235 270 2,300 -840 Descending FlightAware
10:52AM 41.6550 -87.5990 North 229 264 2,200 -300 Descending FlightAware
10:53AM 41.6850 -87.6150 338° Northwest 222 255 2,100 -180 Descending FlightAware
10:53AM 41.6940 -87.6260 318° Northwest 222 255 2,100  Level FlightAware
10:54AM 41.7150 -87.6540 315° West 224 258 2,100 -480 Level FlightAware
10:54AM 41.7390 -87.6700 334° Northwest 225 259 1,700 -540 Descending FlightAware
10:55AM 41.7670 -87.6540 23° Northeast 205 236 1,600 -180 Descending FlightAware
10:55AM 41.7760 -87.6510 14° North 193 222 1,600  Level FlightAware
10:55AM 41.8020 -87.6610 344° North 183 211 1,600 -300 Level FlightAware
10:56AM 41.8110 -87.6720 318° Northwest 177 204 1,400 -660 Descending FlightAware
10:56AM 41.8160 -87.6840 299° West 170 196 1,300 -480 Descending FlightAware
10:56AM 41.8190 -87.6960 289° West 151 174 1,200 -600 Descending FlightAware
10:56AM 41.8120 -87.7170 246° West 127 146 900 -480 Descending FlightAware
10:57AM 41.7960 -87.7380 224° Southwest 123 142 700 -300 Descending FlightAware
11:05AM 41.7833 -87.7500 315° West  Level FlightAware Approximate